createdAt,value
2023-05-16T00:01:48.910Z,99235.13
2023-05-16T00:04:18.777Z,99220.03
2023-05-16T00:06:47.946Z,99223.78
2023-05-16T00:09:24.226Z,99222.13
2023-05-16T00:11:55.902Z,99218.88
2023-05-16T00:14:26.346Z,99220.75
2023-05-16T00:16:54.731Z,99220.50
2023-05-16T00:19:26.349Z,99211.03
2023-05-16T00:21:55.625Z,99208.56
2023-05-16T00:24:26.234Z,99212.31
2023-05-16T00:26:55.604Z,99205.84
2023-05-16T00:29:25.254Z,99203.16
2023-05-16T00:31:53.267Z,99202.34
2023-05-16T00:34:23.093Z,99196.94
2023-05-16T00:36:52.159Z,99191.81
2023-05-16T00:39:21.387Z,99186.16
2023-05-16T00:41:50.682Z,99176.19
2023-05-16T00:44:20.012Z,99179.94
2023-05-16T00:46:49.483Z,99174.78
2023-05-16T00:49:17.641Z,99183.72
2023-05-16T00:51:46.736Z,99182.88
2023-05-16T00:54:16.232Z,99189.34
2023-05-16T00:56:45.736Z,99192.03
2023-05-16T00:59:16.810Z,99186.88
2023-05-16T01:01:46.071Z,99199.31
2023-05-16T01:04:15.793Z,99206.59
2023-05-16T01:06:45.082Z,99200.34
2023-05-16T01:09:14.116Z,99213.03
2023-05-16T01:11:50.310Z,99224.88
2023-05-16T01:14:24.259Z,99224.06
2023-05-16T01:16:58.724Z,99240.25
2023-05-16T01:19:33.879Z,99228.41
2023-05-16T01:22:05.599Z,99218.09
2023-05-16T01:24:35.980Z,99201.91
2023-05-16T01:27:08.734Z,99202.72
2023-05-16T01:29:36.824Z,99183.03
2023-05-16T01:32:06.806Z,99173.31
2023-05-16T01:34:36.662Z,99161.47
2023-05-16T01:37:07.793Z,99153.97
2023-05-16T01:39:39.234Z,99139.41
2023-05-16T01:42:16.476Z,99150.19
2023-05-16T01:44:46.848Z,99150.19
2023-05-16T01:47:16.360Z,99151.81
2023-05-16T01:49:50.873Z,99146.34
2023-05-16T01:52:21.743Z,99155.59
2023-05-16T01:54:49.899Z,99159.91
2023-05-16T01:57:19.856Z,99164.00
2023-05-16T01:59:47.891Z,99161.31
2023-05-16T02:02:15.955Z,99151.34
2023-05-16T02:04:43.999Z,99161.06
2023-05-16T02:07:11.999Z,99159.19
2023-05-16T02:09:39.915Z,99161.06
2023-05-16T02:12:08.209Z,99148.41
2023-05-16T02:14:40.270Z,99153.78
2023-05-16T02:17:08.701Z,99160.84
2023-05-16T02:19:36.756Z,99168.94
2023-05-16T02:22:04.780Z,99168.94
2023-05-16T02:24:32.729Z,99157.06
2023-05-16T02:27:00.996Z,99161.66
2023-05-16T02:29:29.057Z,99161.66
2023-05-16T02:31:58.408Z,99164.59
2023-05-16T02:34:26.399Z,99184.53
2023-05-16T02:36:54.386Z,99192.63
2023-05-16T02:39:22.377Z,99194.50
2023-05-16T02:41:50.328Z,99189.13
2023-05-16T02:44:21.336Z,99184.19
2023-05-16T02:46:49.352Z,99173.38
2023-05-16T02:49:18.968Z,99175.03
2023-05-16T02:51:46.993Z,99168.00
2023-05-16T02:54:14.967Z,99156.41
2023-05-16T02:56:42.970Z,99151.81
2023-05-16T02:59:11.055Z,99137.28
2023-05-16T03:01:39.168Z,99133.53
2023-05-16T03:04:07.275Z,99124.84
2023-05-16T03:06:36.744Z,99121.09
2023-05-16T03:09:06.108Z,99118.41
2023-05-16T03:11:35.293Z,99108.66
2023-05-16T03:14:04.349Z,99089.78
2023-05-16T03:16:33.085Z,99083.34
2023-05-16T03:19:01.150Z,99073.59
2023-05-16T03:21:29.226Z,99063.91
2023-05-16T03:23:58.620Z,99069.28
2023-05-16T03:26:26.718Z,99075.19
2023-05-16T03:28:54.694Z,99084.06
2023-05-16T03:31:22.754Z,99085.16
2023-05-16T03:33:50.888Z,99076.47
2023-05-16T03:36:18.812Z,99064.88
2023-05-16T03:38:46.782Z,99052.69
2023-05-16T03:41:16.167Z,99049.19
2023-05-16T03:43:44.112Z,99037.56
2023-05-16T03:46:12.030Z,99027.63
2023-05-16T03:48:39.984Z,99031.34
2023-05-16T03:51:07.946Z,99045.41
2023-05-16T03:53:35.883Z,99043.78
2023-05-16T03:56:04.172Z,99027.63
2023-05-16T03:58:33.561Z,99030.88
2023-05-16T04:01:01.589Z,99015.53
2023-05-16T04:03:30.398Z,99012.56
2023-05-16T04:05:58.758Z,99021.72
2023-05-16T04:08:27.007Z,99026.63
2023-05-16T04:10:55.043Z,99028.75
2023-05-16T04:13:23.146Z,99041.19
2023-05-16T04:15:52.576Z,99031.44
2023-05-16T04:18:20.608Z,99035.81
2023-05-16T04:20:48.914Z,99036.25
2023-05-16T04:23:16.828Z,99046.00
2023-05-16T04:25:44.900Z,99057.00
2023-05-16T04:28:12.866Z,99063.22
2023-05-16T04:30:40.991Z,99066.19
2023-05-16T04:33:10.377Z,99054.59
2023-05-16T04:35:38.782Z,99054.00
2023-05-16T04:38:06.847Z,99043.22
2023-05-16T04:40:35.300Z,99038.88
2023-05-16T04:43:03.224Z,99048.03
2023-05-16T04:45:31.254Z,99042.63
2023-05-16T04:47:59.294Z,99030.22
2023-05-16T04:50:28.685Z,99035.34
2023-05-16T04:52:56.717Z,99027.53
2023-05-16T04:55:24.792Z,99036.66
2023-05-16T04:57:52.940Z,99045.91
2023-05-16T05:00:21.322Z,99035.72
2023-05-16T05:02:49.331Z,99024.91
2023-05-16T05:05:17.654Z,99040.03
2023-05-16T05:07:47.172Z,99055.41
2023-05-16T05:10:15.172Z,99070.28
2023-05-16T05:12:43.122Z,99081.06
2023-05-16T05:15:11.392Z,99081.06
2023-05-16T05:17:39.463Z,99079.41
2023-05-16T05:20:08.753Z,99087.75
2023-05-16T05:22:36.731Z,99093.38
2023-05-16T05:25:07.118Z,99103.56
2023-05-16T05:27:35.191Z,99117.91
2023-05-16T05:30:03.698Z,99122.22
2023-05-16T05:32:32.293Z,99122.44
2023-05-16T05:35:00.257Z,99119.75
2023-05-16T05:37:28.766Z,99110.63
2023-05-16T05:39:56.791Z,99098.19
2023-05-16T05:44:53.886Z,99080.38
2023-05-16T05:47:22.129Z,99092.78
2023-05-16T05:49:50.276Z,99098.66
2023-05-16T05:52:18.304Z,99093.63
2023-05-16T05:54:46.877Z,99075.81
2023-05-16T05:57:14.873Z,99073.38
2023-05-16T05:59:44.295Z,99089.28
2023-05-16T06:02:12.383Z,99082.59
2023-05-16T06:04:42.723Z,99074.50
2023-05-16T06:07:10.818Z,99072.88
2023-05-16T06:09:38.832Z,99076.16
2023-05-16T06:12:07.489Z,99072.38
2023-05-16T06:14:36.892Z,99071.56
2023-05-16T06:17:14.375Z,99072.38
2023-05-16T06:19:43.702Z,99059.97
2023-05-16T06:22:11.649Z,99057.28
2023-05-16T06:24:41.971Z,99052.94
2023-05-16T06:27:10.014Z,99032.16
2023-05-16T06:29:38.087Z,99030.78
2023-05-16T06:32:09.047Z,99035.63
2023-05-16T06:34:37.903Z,99047.44
2023-05-16T06:37:06.255Z,99045.00
2023-05-16T06:39:34.703Z,99057.66
2023-05-16T06:42:02.873Z,99056.03
2023-05-16T06:44:30.894Z,99061.19
2023-05-16T06:46:59.054Z,99053.09
2023-05-16T06:49:29.620Z,99052.25
2023-05-16T06:51:57.668Z,99055.53
2023-05-16T06:54:25.830Z,99063.88
2023-05-16T06:56:53.832Z,99070.91
2023-05-16T06:59:26.842Z,99067.13
2023-05-16T07:01:57.107Z,99068.53
2023-05-16T07:04:25.509Z,99063.97
2023-05-16T07:06:54.962Z,99070.75
2023-05-16T07:09:23.120Z,99083.16
2023-05-16T07:11:51.158Z,99075.09
2023-05-16T07:14:19.257Z,99071.91
2023-05-16T07:16:47.305Z,99072.72
2023-05-16T07:19:15.372Z,99078.94
2023-05-16T07:21:43.420Z,99083.50
2023-05-16T07:24:12.841Z,99107.53
2023-05-16T07:26:41.050Z,99095.13
2023-05-16T07:29:09.062Z,99107.53
2023-05-16T07:31:37.129Z,99106.72
2023-05-16T07:34:05.199Z,99116.69
2023-05-16T07:36:33.320Z,99110.22
2023-05-16T07:39:01.370Z,99108.13
2023-05-16T07:41:30.790Z,99117.00
2023-05-16T07:43:58.794Z,99092.47
2023-05-16T07:46:26.827Z,99085.47
2023-05-16T07:48:54.871Z,99080.88
2023-05-16T07:51:22.949Z,99063.91
2023-05-16T07:53:51.790Z,99076.31
2023-05-16T07:56:19.886Z,99071.75
2023-05-16T07:58:50.500Z,99082.53
2023-05-16T08:01:18.592Z,99071.50
2023-05-16T08:03:46.663Z,99074.78
2023-05-16T08:06:14.782Z,99077.47
2023-05-16T08:08:43.099Z,99101.50
2023-05-16T08:11:11.437Z,99093.16
2023-05-16T08:13:39.688Z,99103.94
2023-05-16T08:16:09.301Z,99120.72
2023-05-16T08:18:37.396Z,99117.44
2023-05-16T08:21:05.845Z,99128.81
2023-05-16T08:23:33.849Z,99134.19
2023-05-16T08:26:02.166Z,99142.28
2023-05-16T08:28:30.318Z,99140.41
2023-05-16T08:30:58.438Z,99138.53
2023-05-16T08:33:27.814Z,99131.50
2023-05-16T08:35:55.910Z,99139.38
2023-05-16T08:38:23.878Z,99142.88
2023-05-16T08:40:51.948Z,99127.50
2023-05-16T08:43:19.956Z,99127.50
2023-05-16T08:45:47.941Z,99117.53
2023-05-16T08:48:16.010Z,99126.69
2023-05-16T08:50:45.374Z,99118.34
2023-05-16T08:53:13.779Z,99126.19
2023-05-16T08:55:41.939Z,99115.41
2023-05-16T08:58:10.067Z,99117.84
2023-05-16T09:00:38.077Z,99113.28
2023-05-16T09:03:06.231Z,99124.91
2023-05-16T09:05:34.257Z,99116.00
2023-05-16T09:08:03.713Z,99135.69
2023-05-16T09:10:31.662Z,99146.47
2023-05-16T09:12:59.822Z,99158.06
2023-05-16T09:15:32.332Z,99155.16
2023-05-16T09:18:01.729Z,99152.69
2023-05-16T09:20:29.784Z,99150.56
2023-05-16T09:22:58.595Z,99135.19
2023-05-16T09:25:30.860Z,99125.22
2023-05-16T09:28:01.542Z,99127.69
2023-05-16T09:30:31.531Z,99116.06
2023-05-16T09:33:00.217Z,99110.69
2023-05-16T09:35:43.121Z,99105.28
2023-05-16T09:38:15.482Z,99098.59
2023-05-16T09:40:44.859Z,99097.25
2023-05-16T09:43:12.779Z,99097.25
2023-05-16T09:45:40.800Z,99090.22
2023-05-16T09:48:10.307Z,99090.22
2023-05-16T09:50:38.746Z,99107.22
2023-05-16T09:53:06.978Z,99102.66
2023-05-16T09:55:35.160Z,99118.03
2023-05-16T09:58:04.680Z,99129.63
2023-05-16T10:00:33.354Z,99136.09
2023-05-16T10:03:05.455Z,99133.41
2023-05-16T10:05:34.802Z,99134.22
2023-05-16T10:08:03.781Z,99147.97
2023-05-16T10:10:31.865Z,99144.19
2023-05-16T10:13:01.550Z,99129.63
2023-05-16T10:15:31.196Z,99117.78
2023-05-16T10:18:00.202Z,99119.41
2023-05-16T10:20:28.266Z,99124.59
2023-05-16T10:22:57.033Z,99104.88
2023-05-16T10:25:27.731Z,99095.72
2023-05-16T10:27:56.017Z,99105.44
2023-05-16T10:30:24.020Z,99100.88
2023-05-16T10:32:53.472Z,99100.03
2023-05-16T10:35:21.772Z,99099.00
2023-05-16T10:37:50.090Z,99083.38
2023-05-16T10:40:18.097Z,99074.22
2023-05-16T10:42:47.427Z,99073.13
2023-05-16T10:45:18.369Z,99074.78
2023-05-16T10:47:54.429Z,99077.50
2023-05-16T10:50:43.974Z,99078.06
2023-05-16T10:53:20.589Z,99083.19
2023-05-16T10:56:07.663Z,99080.31
2023-05-16T10:58:45.453Z,99081.34
2023-05-16T11:01:20.772Z,99072.41
2023-05-16T11:04:08.777Z,99075.72
2023-05-16T11:06:37.396Z,99065.72
2023-05-16T11:09:10.372Z,99061.41
2023-05-16T11:11:42.839Z,99061.97
2023-05-16T11:14:12.078Z,99057.13
2023-05-16T11:16:40.666Z,99052.56
2023-05-16T11:19:10.336Z,99056.91
2023-05-16T11:22:09.441Z,99043.72
2023-05-16T11:24:38.289Z,99040.78
2023-05-16T11:27:06.583Z,99052.97
2023-05-16T11:29:35.143Z,99043.78
2023-05-16T11:32:03.731Z,99038.41
2023-05-16T11:34:33.361Z,99034.38
2023-05-16T11:37:02.276Z,99030.06
2023-05-16T11:39:31.815Z,99030.06
2023-05-16T11:41:59.817Z,99017.13
2023-05-16T11:44:27.926Z,99019.81
2023-05-16T11:46:55.979Z,99023.34
2023-05-16T11:49:24.020Z,99029.56
2023-05-16T11:51:53.350Z,99024.97
2023-05-16T11:54:21.356Z,99037.41
2023-05-16T11:56:49.401Z,99034.69
2023-05-16T11:59:17.976Z,99046.34
2023-05-16T12:01:48.332Z,99034.69
2023-05-16T12:04:17.052Z,99033.66
2023-05-16T12:06:45.628Z,99022.59
2023-05-16T12:09:17.617Z,99022.34
2023-05-16T12:11:46.522Z,99014.00
2023-05-16T12:14:14.562Z,99026.75
2023-05-16T12:16:44.120Z,99016.50
2023-05-16T12:19:12.236Z,99017.09
2023-05-16T12:21:40.281Z,99005.22
2023-05-16T12:24:11.110Z,99002.00
2023-05-16T12:26:41.383Z,99006.94
2023-05-16T12:29:11.365Z,98991.53
2023-05-16T12:31:41.011Z,98977.53
2023-05-16T12:34:19.096Z,98970.00
2023-05-16T12:36:47.745Z,98960.56
2023-05-16T12:39:16.410Z,98954.66
2023-05-16T12:41:45.695Z,98941.72
2023-05-16T12:44:16.839Z,98935.81
2023-05-16T12:46:45.771Z,98918.28
2023-05-16T12:49:14.586Z,98915.31
2023-05-16T12:51:42.596Z,98907.78
2023-05-16T12:54:11.761Z,98904.84
2023-05-16T12:56:40.793Z,98909.41
2023-05-16T12:59:10.254Z,98914.31
2023-05-16T13:01:38.453Z,98903.50
2023-05-16T13:04:06.787Z,98895.94
2023-05-16T13:06:55.642Z,98904.63
2023-05-16T13:09:23.513Z,98906.88
2023-05-16T13:11:52.491Z,98902.91
2023-05-16T13:14:23.003Z,98910.25
2023-05-16T13:16:51.516Z,98898.69
2023-05-16T13:19:19.718Z,98896.78
2023-05-16T13:21:47.840Z,98895.13
2023-05-16T13:24:15.904Z,98893.00
2023-05-16T13:26:44.056Z,98893.00
2023-05-16T13:29:12.398Z,98878.44
2023-05-16T13:31:41.956Z,98891.94
2023-05-16T13:34:10.003Z,98885.69
2023-05-16T13:36:52.261Z,98889.25
2023-05-16T13:39:21.852Z,98896.50
2023-05-16T13:41:49.927Z,98884.66
2023-05-16T13:44:18.184Z,98884.91
2023-05-16T13:46:47.684Z,98890.31
2023-05-16T13:49:15.686Z,98889.25
2023-05-16T13:51:43.788Z,98910.88
2023-05-16T13:54:11.820Z,98911.13
2023-05-16T13:56:40.028Z,98914.91
2023-05-16T13:59:09.713Z,98924.06
2023-05-16T14:01:39.593Z,98920.53
2023-05-16T14:04:09.149Z,98925.16
2023-05-16T14:06:37.329Z,98915.16
2023-05-16T14:09:06.451Z,98913.53
2023-05-16T14:11:34.586Z,98918.94
2023-05-16T14:14:02.543Z,98910.81
2023-05-16T14:16:31.174Z,98897.31
2023-05-16T14:18:59.351Z,98886.50
2023-05-16T14:21:28.910Z,98887.03
2023-05-16T14:23:56.872Z,98885.16
2023-05-16T14:26:25.577Z,98875.41
2023-05-16T14:28:53.709Z,98863.56
2023-05-16T14:31:21.724Z,98875.16
2023-05-16T14:33:49.799Z,98866.78
2023-05-16T14:36:17.832Z,98856.81
2023-05-16T14:38:49.184Z,98851.94
2023-05-16T14:41:17.441Z,98853.03
2023-05-16T14:43:45.614Z,98846.53
2023-05-16T14:46:14.057Z,98853.59
2023-05-16T14:48:42.127Z,98866.28
2023-05-16T14:51:10.165Z,98870.06
2023-05-16T14:53:38.157Z,98860.31
2023-05-16T14:56:08.040Z,98868.44
2023-05-16T14:58:36.145Z,98884.66
2023-05-16T15:01:04.420Z,98889.25
2023-05-16T15:03:43.226Z,98889.25
2023-05-16T15:06:15.348Z,98883.84
2023-05-16T15:08:43.668Z,98887.34
2023-05-16T15:11:13.148Z,98863.31
2023-05-16T15:13:41.236Z,98860.09
2023-05-16T15:16:09.427Z,98852.53
2023-05-16T15:18:37.506Z,98860.66
2023-05-16T15:21:05.455Z,98861.47
2023-05-16T15:23:34.566Z,98865.50
2023-05-16T15:26:02.555Z,98849.56
2023-05-16T15:28:31.980Z,98848.75
2023-05-16T15:30:59.989Z,98848.75
2023-05-16T15:33:28.050Z,98851.44
2023-05-16T15:35:56.079Z,98848.75
2023-05-16T15:38:24.131Z,98853.31
2023-05-16T15:41:05.049Z,98859.00
2023-05-16T15:43:42.096Z,98863.31
2023-05-16T15:46:10.294Z,98864.97
2023-05-16T15:48:38.808Z,98860.38
2023-05-16T15:51:06.983Z,98860.38
2023-05-16T15:53:34.953Z,98864.44
2023-05-16T15:56:02.921Z,98870.91
2023-05-16T15:58:30.950Z,98879.56
2023-05-16T16:01:00.478Z,98883.91
2023-05-16T16:03:28.886Z,98874.97
2023-05-16T16:05:56.927Z,98866.06
2023-05-16T16:08:25.388Z,98870.38
2023-05-16T16:10:53.426Z,98862.28
2023-05-16T16:13:24.280Z,98866.88
2023-05-16T16:15:52.373Z,98866.06
2023-05-16T16:18:21.840Z,98865.50
2023-05-16T16:20:49.968Z,98870.91
2023-05-16T16:23:17.964Z,98862.25
2023-05-16T16:25:46.053Z,98863.06
2023-05-16T16:28:14.050Z,98863.06
2023-05-16T16:30:44.167Z,98864.97
2023-05-16T16:33:12.116Z,98868.72
2023-05-16T16:35:41.509Z,98873.56
2023-05-16T16:38:09.529Z,98872.75
2023-05-16T16:40:37.449Z,98882.75
2023-05-16T16:43:06.580Z,98879.25
2023-05-16T16:45:34.650Z,98895.47
2023-05-16T16:48:02.744Z,98890.31
2023-05-16T16:50:32.081Z,98902.75
2023-05-16T16:53:04.266Z,98904.63
2023-05-16T16:55:32.280Z,98910.31
2023-05-16T16:58:00.278Z,98907.59
2023-05-16T17:00:28.605Z,98902.44
2023-05-16T17:02:56.901Z,98899.72
2023-05-16T17:05:25.145Z,98898.13
2023-05-16T17:07:56.395Z,98881.91
2023-05-16T17:10:25.886Z,98889.19
2023-05-16T17:12:54.796Z,98888.38
2023-05-16T17:15:23.174Z,98898.38
2023-05-16T17:17:51.759Z,98900.50
2023-05-16T17:20:19.836Z,98908.59
2023-05-16T17:22:48.706Z,98912.38
2023-05-16T17:25:16.757Z,98918.88
2023-05-16T17:27:46.171Z,98919.94
2023-05-16T17:30:15.551Z,98926.19
2023-05-16T17:32:44.998Z,98926.41
2023-05-16T17:35:13.044Z,98926.94
2023-05-16T17:37:41.512Z,98918.81
2023-05-16T17:40:16.420Z,98925.03
2023-05-16T17:42:46.014Z,98921.25
2023-05-16T17:45:14.870Z,98928.31
2023-05-16T17:47:42.957Z,98936.16
2023-05-16T17:50:11.334Z,98941.31
2023-05-16T17:52:40.272Z,98947.53
2023-05-16T17:55:10.342Z,98944.81
2023-05-16T17:57:38.293Z,98952.94
2023-05-16T18:00:09.404Z,98954.00
2023-05-16T18:02:38.692Z,98954.00
2023-05-16T18:05:07.893Z,98950.50
2023-05-16T18:07:35.965Z,98954.25
2023-05-16T18:10:04.151Z,98948.59
2023-05-16T18:12:32.328Z,98958.84
2023-05-16T18:15:00.316Z,98962.38
2023-05-16T18:17:29.744Z,98973.97
2023-05-16T18:19:58.706Z,98971.56
2023-05-16T18:22:28.738Z,98968.03
2023-05-16T18:24:56.933Z,98969.91
2023-05-16T18:27:24.958Z,98973.69
2023-05-16T18:29:53.039Z,98979.91
2023-05-16T18:32:21.890Z,98979.31
2023-05-16T18:34:51.617Z,98978.28
2023-05-16T18:37:19.649Z,98984.72
2023-05-16T18:39:48.536Z,98992.03
2023-05-16T18:42:17.276Z,98992.84
2023-05-16T18:44:45.266Z,98993.91
2023-05-16T18:47:15.792Z,99000.41
2023-05-16T18:49:44.090Z,99005.81
2023-05-16T18:52:13.485Z,99005.81
2023-05-16T18:54:41.604Z,99005.25
2023-05-16T18:57:09.683Z,99007.94
2023-05-16T18:59:37.750Z,99006.28
2023-05-16T19:02:06.084Z,99003.59
2023-05-16T19:04:34.242Z,99003.59
2023-05-16T19:07:04.818Z,99004.66
2023-05-16T19:09:34.998Z,99006.28
2023-05-16T19:12:02.944Z,99017.09
2023-05-16T19:14:31.383Z,99013.84
2023-05-16T19:16:59.470Z,99026.28
2023-05-16T19:19:27.749Z,99020.06
2023-05-16T19:21:56.314Z,99024.66
2023-05-16T19:24:24.383Z,99028.41
2023-05-16T19:26:54.334Z,99033.81
2023-05-16T19:29:22.500Z,99035.72
2023-05-16T19:31:50.658Z,99040.88
2023-05-16T19:34:20.812Z,99044.06
2023-05-16T19:36:48.997Z,99047.81
2023-05-16T19:39:17.117Z,99054.88
2023-05-16T19:41:47.669Z,99055.91
2023-05-16T19:44:21.085Z,99069.69
2023-05-16T19:46:49.112Z,99060.50
2023-05-16T19:49:20.031Z,99065.09
2023-05-16T19:51:48.361Z,99076.13
2023-05-16T19:54:16.455Z,99069.69
2023-05-16T19:56:44.423Z,99069.94
2023-05-16T19:59:12.413Z,99074.53
2023-05-16T20:01:44.533Z,99077.22
2023-05-16T20:04:12.834Z,99081.81
2023-05-16T20:06:41.288Z,99081.81
2023-05-16T20:09:10.483Z,99085.00
2023-05-16T20:11:38.513Z,99085.00
2023-05-16T20:14:06.537Z,99085.25
2023-05-16T20:16:34.876Z,99082.78
2023-05-16T20:19:04.438Z,99075.78
2023-05-16T20:21:32.667Z,99083.28
2023-05-16T20:24:00.704Z,99093.28
2023-05-16T20:26:28.716Z,99087.88
2023-05-16T20:28:56.875Z,99092.47
2023-05-16T20:31:24.924Z,99092.72
2023-05-16T20:33:53.038Z,99096.50
2023-05-16T20:36:22.645Z,99100.00
2023-05-16T20:38:50.943Z,99102.13
2023-05-16T20:41:18.992Z,99094.31
2023-05-16T20:43:47.514Z,99095.09
2023-05-16T20:46:15.703Z,99093.47
2023-05-16T20:48:43.731Z,99097.81
2023-05-16T20:51:11.765Z,99102.63
2023-05-16T20:53:41.165Z,99098.31
2023-05-16T20:56:09.112Z,99105.34
2023-05-16T20:58:41.163Z,99101.81
2023-05-16T21:01:09.334Z,99102.63
2023-05-16T21:03:37.319Z,99099.13
2023-05-16T21:06:06.194Z,99095.63
2023-05-16T21:08:34.610Z,99098.84
2023-05-16T21:11:04.060Z,99091.03
2023-05-16T21:13:34.586Z,99099.94
2023-05-16T21:16:02.762Z,99103.72
2023-05-16T21:18:30.908Z,99093.97
2023-05-16T21:20:59.004Z,99096.66
2023-05-16T21:23:27.018Z,99100.16
2023-05-16T21:25:55.026Z,99105.84
2023-05-16T21:28:24.411Z,99111.81
2023-05-16T21:30:52.438Z,99107.72
2023-05-16T21:33:23.089Z,99101.50
2023-05-16T21:35:52.566Z,99093.38
2023-05-16T21:38:21.272Z,99099.06
2023-05-16T21:40:49.333Z,99104.47
2023-05-16T21:43:17.630Z,99114.44
2023-05-16T21:45:49.865Z,99109.03
2023-05-16T21:48:18.278Z,99111.97
2023-05-16T21:50:46.526Z,99107.38
2023-05-16T21:53:14.681Z,99102.00
2023-05-16T21:55:42.583Z,99108.47
2023-05-16T21:58:10.663Z,99103.06
2023-05-16T22:00:38.666Z,99100.38
2023-05-16T22:03:08.444Z,99096.84
2023-05-16T22:05:36.609Z,99096.28
2023-05-16T22:08:04.716Z,99092.50
2023-05-16T22:10:32.750Z,99093.81
2023-05-16T22:13:00.854Z,99089.25
2023-05-16T22:15:29.116Z,99089.50
2023-05-16T22:17:57.644Z,99095.19
2023-05-16T22:20:27.947Z,99088.19
2023-05-16T22:22:56.051Z,99091.13
2023-05-16T22:25:24.148Z,99088.41
2023-05-16T22:27:52.297Z,99094.66
2023-05-16T22:30:20.395Z,99099.22
2023-05-16T22:32:48.410Z,99097.59
2023-05-16T22:35:16.574Z,99093.81
2023-05-16T22:37:45.957Z,99096.78
2023-05-16T22:40:13.900Z,99096.78
2023-05-16T22:42:41.912Z,99093.28
2023-05-16T22:45:10.493Z,99094.06
2023-05-16T22:47:38.535Z,99094.31
2023-05-16T22:50:07.300Z,99096.19
2023-05-16T22:52:41.145Z,99101.03
2023-05-16T22:55:11.191Z,99098.09
2023-05-16T22:57:39.272Z,99104.31
2023-05-16T23:00:09.154Z,99105.63
2023-05-16T23:02:37.354Z,99100.22
2023-05-16T23:05:06.069Z,99109.41
2023-05-16T23:07:34.195Z,99107.75
2023-05-16T23:10:04.097Z,99106.13
2023-05-16T23:12:33.568Z,99110.69
2023-05-16T23:15:01.573Z,99117.72
2023-05-16T23:17:29.683Z,99116.91
2023-05-16T23:19:57.864Z,99122.31
2023-05-16T23:22:25.916Z,99132.31
2023-05-16T23:24:54.398Z,99136.88
2023-05-16T23:27:22.560Z,99123.38
2023-05-16T23:29:52.057Z,99126.09
2023-05-16T23:32:20.071Z,99118.22
2023-05-16T23:34:48.185Z,99124.44
2023-05-16T23:37:16.732Z,99123.63
2023-05-16T23:39:44.756Z,99120.13
2023-05-16T23:42:13.044Z,99122.81
2023-05-16T23:44:41.985Z,99120.63
2023-05-16T23:47:11.374Z,99124.34
2023-05-16T23:49:39.283Z,99120.84
2023-05-16T23:52:07.577Z,99102.19
2023-05-16T23:54:35.942Z,99107.59
2023-05-16T23:57:03.983Z,99110.53
2023-05-16T23:59:31.977Z,99109.97
